Time;durP1;ratioP1;P1;durP2;ratioP2;P2;SDS_P1;SDS_P2;PMS_P1;PMS_P2;Temp;Humidity;BMP_temperature;BMP_pressure;BME280_temperature;BME280_humidity;BME280_pressure;Samples;Min_cycle;Max_cycle;Signal;HPM_P1;HPM_P2
2021/10/13 00:04:06;;;;;;;31.57;17.73;;;;;;;7.46;89.76;98704.25;4180381;83;21157;-83
2021/10/13 00:10:08;;;;;;;40.65;20.02;;;;;;;7.51;89.82;98706.68;4175767;83;21088;-84
2021/10/13 00:16:09;;;;;;;40.98;20.17;;;;;;;7.52;89.93;98704.16;4161193;83;22166;-83
2021/10/13 00:22:11;;;;;;;39.45;18.98;;;;;;;7.48;90.12;98708.77;4179691;83;21056;-85
2021/10/13 00:28:12;;;;;;;35.50;19.17;;;;;;;7.46;90.24;98708.33;4163754;83;21704;-83
2021/10/13 00:34:15;;;;;;;30.92;17.23;;;;;;;7.43;90.49;98711.78;4180154;83;21049;-83
2021/10/13 00:40:16;;;;;;;25.80;16.05;;;;;;;7.42;90.50;98709.41;4180054;83;21018;-82
2021/10/13 00:46:17;;;;;;;24.50;15.20;;;;;;;7.42;90.66;98705.33;4111865;85;21046;-81
2021/10/13 00:52:19;;;;;;;27.60;13.85;;;;;;;7.36;90.54;98700.73;4075525;84;21046;-81
2021/10/13 00:58:20;;;;;;;30.77;14.28;;;;;;;7.21;91.00;98696.18;4126908;85;21542;-82
2021/10/13 01:04:36;;;;;;;28.50;12.75;;;;;;;7.22;91.29;98696.98;4116125;85;21083;-82
2021/10/13 01:11:04;;;;;;;25.92;13.48;;;;;;;7.24;91.30;98694.09;4066479;86;21195;-81
2021/10/13 01:17:34;;;;;;;27.07;13.40;;;;;;;7.24;91.36;98698.75;4064484;86;21067;-81
2021/10/13 01:23:47;;;;;;;26.25;12.63;;;;;;;7.26;91.44;98708.14;4211035;83;21526;-81
2021/10/13 01:29:51;;;;;;;24.63;14.20;;;;;;;7.28;91.52;98711.27;4216927;82;21097;-81
2021/10/13 01:35:57;;;;;;;29.52;14.78;;;;;;;7.27;91.66;98714.36;4221826;83;21467;-81
2021/10/13 01:42:06;;;;;;;21.90;13.43;;;;;;;7.24;91.71;98718.60;4206832;83;21589;-83
2021/10/13 01:48:07;;;;;;;21.07;13.35;;;;;;;7.29;91.98;98710.71;4213234;83;21692;-81
2021/10/13 01:54:09;;;;;;;20.65;12.18;;;;;;;7.28;91.77;98714.59;4112207;84;21087;-81
2021/10/13 02:00:14;;;;;;;21.65;13.25;;;;;;;7.30;92.09;98724.53;4112972;85;21142;-82
2021/10/13 02:06:16;;;;;;;21.70;12.13;;;;;;;7.27;91.86;98722.53;4120733;85;21015;-82
2021/10/13 02:12:21;;;;;;;22.22;11.83;;;;;;;7.19;92.04;98733.86;4116517;84;21113;-81
2021/10/13 02:18:29;;;;;;;22.77;14.00;;;;;;;7.22;92.25;98736.45;4121202;84;21099;-81
2021/10/13 02:24:36;;;;;;;24.32;14.65;;;;;;;7.30;92.42;98744.95;4066003;86;21618;-81
2021/10/13 02:30:38;;;;;;;;;;;;;;;7.29;92.41;98755.64;4222876;82;21136;-81
2021/10/13 02:36:41;;;;;;;24.92;15.35;;;;;;;7.26;92.67;98758.52;4229701;83;20413;-81
2021/10/13 02:42:43;;;;;;;27.15;15.15;;;;;;;7.26;92.55;98758.52;4208794;83;21030;-81
2021/10/13 02:48:49;;;;;;;22.67;15.25;;;;;;;7.26;92.63;98765.89;4209656;83;21109;-81
2021/10/13 02:55:10;;;;;;;23.65;14.13;;;;;;;7.23;92.75;98776.93;4219768;82;21061;-82
2021/10/13 03:01:16;;;;;;;36.13;16.60;;;;;;;7.24;92.83;98784.50;4105472;85;21638;-81
2021/10/13 03:07:22;;;;;;;30.00;17.17;;;;;;;7.20;92.70;98783.09;4045286;85;21099;-82
2021/10/13 03:13:29;;;;;;;26.97;16.23;;;;;;;7.17;92.87;98791.17;4053907;86;21096;-82
2021/10/13 03:19:38;;;;;;;22.35;13.20;;;;;;;7.09;93.03;98794.89;4235792;83;21037;-84
2021/10/13 03:25:39;;;;;;;20.52;10.43;;;;;;;7.03;93.09;98806.61;4228359;83;21120;-82
2021/10/13 03:31:42;;;;;;;19.10;9.45;;;;;;;7.03;92.91;98809.92;4231314;83;21499;-81
2021/10/13 03:37:43;;;;;;;17.52;8.80;;;;;;;6.95;92.84;98825.88;4216674;83;21068;-81
2021/10/13 03:43:50;;;;;;;16.55;8.10;;;;;;;6.84;92.98;98825.65;4227342;82;21077;-82
2021/10/13 03:49:51;;;;;;;12.15;8.28;;;;;;;6.80;93.03;98830.77;4222427;83;21010;-81
2021/10/13 03:55:52;;;;;;;9.50;5.92;;;;;;;6.73;92.95;98839.57;4236983;82;21063;-81
2021/10/13 04:01:53;;;;;;;11.95;7.37;;;;;;;6.69;92.84;98849.56;4239015;82;21018;-82
2021/10/13 04:07:55;;;;;;;16.95;8.95;;;;;;;6.63;93.05;98857.78;4228465;82;21613;-84
2021/10/13 04:13:56;;;;;;;16.60;8.00;;;;;;;6.59;93.17;98856.11;4226740;83;21684;-82
2021/10/13 04:19:57;;;;;;;11.38;7.78;;;;;;;6.57;93.24;98871.42;4234187;83;21606;-82
2021/10/13 04:25:58;;;;;;;12.03;8.05;;;;;;;6.58;93.32;98880.38;4231190;83;21339;-82
2021/10/13 04:32:00;;;;;;;15.53;8.80;;;;;;;6.55;93.26;98889.22;4227411;83;21061;-82
2021/10/13 04:38:06;;;;;;;13.60;8.58;;;;;;;6.50;93.16;98888.14;4224968;82;21037;-81
2021/10/13 04:44:07;;;;;;;12.70;7.22;;;;;;;6.46;93.20;98891.33;4216905;83;21035;-80
2021/10/13 04:50:09;;;;;;;10.95;7.45;;;;;;;6.40;92.87;98894.30;4238815;82;21494;-84
2021/10/13 04:56:10;;;;;;;13.22;7.78;;;;;;;6.35;92.98;98895.14;4223122;82;21132;-82
2021/10/13 05:02:11;;;;;;;13.13;8.20;;;;;;;6.25;92.89;98893.72;4239033;83;21064;-84
2021/10/13 05:08:12;;;;;;;13.55;7.05;;;;;;;6.18;92.99;98907.70;4242056;82;21445;-83
2021/10/13 05:14:14;;;;;;;12.65;7.85;;;;;;;6.15;93.02;98920.04;4229617;83;21566;-81
2021/10/13 05:20:15;;;;;;;14.43;7.97;;;;;;;6.13;92.97;98925.05;4227903;83;21177;-82
2021/10/13 05:26:16;;;;;;;17.30;9.50;;;;;;;6.12;93.07;98933.55;4233618;83;21065;-82
2021/10/13 05:32:18;;;;;;;16.85;10.48;;;;;;;6.08;92.76;98951.11;4227735;83;21006;-81
2021/10/13 05:38:19;;;;;;;16.87;10.45;;;;;;;6.08;93.27;98959.83;4229394;83;21053;-84
2021/10/13 05:44:20;;;;;;;17.55;12.37;;;;;;;6.07;93.08;98970.48;4232312;83;21109;-82
2021/10/13 05:50:21;;;;;;;21.52;11.80;;;;;;;6.14;93.27;98979.63;4242634;83;21006;-81
2021/10/13 05:56:23;;;;;;;19.62;12.78;;;;;;;6.12;92.89;98985.96;4199110;83;21109;-82
2021/10/13 06:02:25;;;;;;;14.95;10.32;;;;;;;6.07;93.29;98994.94;4136113;84;21078;-82
2021/10/13 06:08:26;;;;;;;16.37;9.73;;;;;;;6.14;93.24;99006.00;4140363;84;21033;-82
2021/10/13 06:14:27;;;;;;;19.02;11.35;;;;;;;6.12;93.09;99025.96;4138783;85;21109;-82
2021/10/13 06:20:29;;;;;;;23.12;13.65;;;;;;;6.22;92.92;99030.33;4133252;85;21030;-82
2021/10/13 06:26:30;;;;;;;19.25;12.37;;;;;;;6.34;93.31;99038.44;4133499;84;21374;-82
2021/10/13 06:32:31;;;;;;;13.05;9.40;;;;;;;6.50;93.24;99058.11;4128486;84;21062;-83
2021/10/13 06:38:34;;;;;;;12.85;8.65;;;;;;;6.57;93.09;99073.25;4135771;84;21697;-81
2021/10/13 06:44:36;;;;;;;14.13;8.85;;;;;;;6.57;92.59;99077.33;4129358;85;21101;-82
2021/10/13 06:50:37;;;;;;;12.70;9.03;;;;;;;6.57;92.68;99083.56;4133514;84;21121;-82
2021/10/13 06:56:38;;;;;;;17.50;10.95;;;;;;;6.60;92.93;99085.59;4171414;83;21653;-82
2021/10/13 07:02:40;;;;;;;14.43;9.75;;;;;;;6.62;92.93;99086.05;4210096;83;21113;-82
2021/10/13 07:08:41;;;;;;;19.37;11.83;;;;;;;6.72;92.73;99092.92;4208065;83;21047;-82
2021/10/13 07:14:42;;;;;;;18.60;12.45;;;;;;;6.74;92.55;99101.51;4209146;82;21042;-80
2021/10/13 07:20:44;;;;;;;22.50;12.95;;;;;;;6.69;92.31;99104.50;4212336;82;21779;-81
2021/10/13 07:26:45;;;;;;;20.48;12.65;;;;;;;6.70;92.50;99110.95;4208467;83;21050;-82
2021/10/13 07:32:47;;;;;;;19.57;14.03;;;;;;;6.87;92.49;99115.30;4217026;83;21498;-81
2021/10/13 07:38:48;;;;;;;19.15;11.83;;;;;;;6.90;92.43;99119.48;4219126;83;21130;-81
2021/10/13 07:44:49;;;;;;;18.17;11.85;;;;;;;6.89;92.30;99124.67;4200702;82;43268;-83
2021/10/13 07:50:53;;;;;;;22.35;11.53;;;;;;;6.97;92.59;99129.77;4194707;83;21104;-81
2021/10/13 07:56:54;;;;;;;19.00;10.40;;;;;;;6.98;92.08;99133.50;4197084;83;21128;-82
2021/10/13 08:02:55;;;;;;;13.30;9.38;;;;;;;6.95;91.83;99132.04;4199650;82;21020;-81
2021/10/13 08:08:56;;;;;;;16.60;8.45;;;;;;;7.08;92.25;99137.06;4197460;83;21119;-81
2021/10/13 08:14:59;;;;;;;11.57;8.98;;;;;;;7.14;91.74;99132.17;4195598;83;21015;-81
2021/10/13 08:21:00;;;;;;;13.22;9.43;;;;;;;7.17;91.66;99133.61;4198506;83;21036;-82
2021/10/13 08:27:05;;;;;;;16.60;9.68;;;;;;;7.14;91.18;99131.58;4194206;83;21035;-80
2021/10/13 08:33:06;;;;;;;15.38;6.40;;;;;;;7.51;91.87;99132.96;4193589;83;21130;-83
2021/10/13 08:39:07;;;;;;;8.45;6.45;;;;;;;7.92;90.74;99134.34;4196917;83;21056;-82
2021/10/13 08:45:09;;;;;;;14.85;9.53;;;;;;;7.80;89.63;99141.23;4194947;83;21079;-82
2021/10/13 08:51:10;;;;;;;15.58;10.65;;;;;;;7.67;89.49;99145.22;4194321;83;21063;-82
2021/10/13 08:57:23;;;;;;;14.03;10.13;;;;;;;7.52;89.62;99153.60;4183631;83;21058;-81
2021/10/13 09:03:32;;;;;;;18.77;12.30;;;;;;;7.46;89.68;99148.20;4158871;84;21109;-81
2021/10/13 09:09:35;;;;;;;21.15;12.33;;;;;;;7.46;89.58;99154.20;4160368;83;21086;-81
2021/10/13 09:15:39;;;;;;;20.90;11.45;;;;;;;7.38;89.55;99160.05;4159195;83;21657;-83
2021/10/13 09:22:02;;;;;;;19.42;11.93;;;;;;;7.33;89.54;99172.55;4157252;82;21601;-81
2021/10/13 09:28:05;;;;;;;21.70;13.72;;;;;;;7.29;89.73;99171.67;4158115;83;21071;-82
2021/10/13 09:34:09;;;;;;;17.75;12.55;;;;;;;7.34;89.56;99171.99;4160013;83;21050;-83
2021/10/13 09:40:11;;;;;;;22.90;12.93;;;;;;;7.35;89.93;99177.09;4156025;83;21024;-81
2021/10/13 09:46:14;;;;;;;21.70;13.62;;;;;;;7.47;89.78;99177.60;4159447;82;21020;-81
2021/10/13 09:52:27;;;;;;;17.02;11.33;;;;;;;7.49;89.73;99196.52;4163894;83;21042;-82
2021/10/13 09:58:34;;;;;;;19.45;12.05;;;;;;;7.26;89.45;99213.78;4181906;83;21052;-82
2021/10/13 10:04:35;;;;;;;17.95;12.68;;;;;;;6.94;89.62;99215.61;4208829;83;22256;-82
2021/10/13 10:11:06;;;;;;;21.93;12.73;;;;;;;6.75;90.20;99214.07;4209317;82;21094;-81
2021/10/13 10:17:08;;;;;;;17.25;10.98;;;;;;;6.64;90.33;99198.00;4206902;83;21032;-81
2021/10/13 10:23:35;;;;;;;20.62;13.18;;;;;;;6.78;91.28;99194.33;4208929;83;21432;-82
2021/10/13 10:29:37;;;;;;;23.07;16.48;;;;;;;6.86;91.11;99203.52;4196395;83;21092;-82
2021/10/13 10:35:44;;;;;;;20.25;14.98;;;;;;;7.28;92.24;99198.67;4211211;83;21096;-81
2021/10/13 10:41:55;;;;;;;22.98;16.62;;;;;;;7.62;91.91;99198.05;4210556;83;21056;-81
2021/10/13 10:48:02;;;;;;;22.10;15.23;;;;;;;7.89;91.77;99197.16;4211129;83;21056;-80
2021/10/13 10:54:09;;;;;;;26.25;17.48;;;;;;;7.95;91.68;99193.02;4206338;83;21052;-81
2021/10/13 11:00:25;;;;;;;29.12;19.48;;;;;;;7.93;91.20;99193.96;4185143;83;21151;-81
2021/10/13 11:06:28;;;;;;;30.30;18.48;;;;;;;7.88;91.46;99198.31;4194186;83;21157;-83
2021/10/13 11:12:55;;;;;;;24.87;16.70;;;;;;;8.00;91.70;99203.66;4174841;83;21092;-81
2021/10/13 11:19:12;;;;;;;22.75;16.20;;;;;;;8.46;92.09;99208.87;4197600;82;21188;-81
2021/10/13 11:25:17;;;;;;;17.42;12.60;;;;;;;8.93;92.33;99199.16;4194029;82;21537;-84
2021/10/13 11:31:20;;;;;;;22.70;15.08;;;;;;;8.87;90.84;99185.02;4194820;83;21111;-81
2021/10/13 11:37:26;;;;;;;25.23;16.17;;;;;;;8.64;90.41;99194.27;4197425;83;21074;-81
2021/10/13 11:43:30;;;;;;;19.12;11.73;;;;;;;8.46;90.72;99196.59;4198230;83;21024;-81
2021/10/13 11:49:54;;;;;;;15.00;11.35;;;;;;;8.37;90.57;99193.84;4195152;83;21033;-81
2021/10/13 11:55:56;;;;;;;16.30;11.78;;;;;;;8.12;90.05;99198.69;4198221;82;21513;-81
2021/10/13 12:02:17;;;;;;;17.15;11.40;;;;;;;8.00;90.16;99192.75;4194680;82;21072;-81
2021/10/13 12:08:33;;;;;;;18.57;11.68;;;;;;;7.85;89.92;99200.94;4194112;82;21061;-81
2021/10/13 12:14:36;;;;;;;18.57;12.40;;;;;;;7.80;90.08;99197.91;4158105;83;33890;-82
2021/10/13 12:20:38;;;;;;;15.13;10.95;;;;;;;7.89;90.86;99202.61;4143817;84;21060;-81
2021/10/13 12:26:42;;;;;;;17.00;11.22;;;;;;;7.86;90.08;99204.67;4148851;84;21983;-83
2021/10/13 12:32:43;;;;;;;12.07;6.12;;;;;;;7.98;90.79;99214.71;4157124;84;21001;-82
2021/10/13 12:38:50;;;;;;;9.20;6.40;;;;;;;8.06;90.19;99204.77;4147272;84;21091;-81
2021/10/13 12:44:58;;;;;;;13.00;7.73;;;;;;;8.19;90.40;99212.48;4150222;84;21071;-81
2021/10/13 12:51:05;;;;;;;13.58;9.10;;;;;;;8.35;89.97;99215.25;4157098;84;21044;-83
2021/10/13 12:57:17;;;;;;;;;;;;;;;8.40;89.44;99219.84;4150018;84;21124;-82
2021/10/13 13:03:19;;;;;;;12.05;8.53;;;;;;;8.45;89.65;99227.76;4147408;84;20564;-81
2021/10/13 13:09:20;;;;;;;20.68;9.20;;;;;;;8.48;89.44;99218.06;4152482;84;21060;-82
2021/10/13 13:15:21;;;;;;;12.03;7.42;;;;;;;8.41;88.92;99220.05;4155533;84;21073;-81
2021/10/13 13:21:23;;;;;;;12.40;8.15;;;;;;;8.43;88.97;99221.05;4154906;84;21575;-81
2021/10/13 13:27:24;;;;;;;10.90;7.15;;;;;;;8.42;88.91;99222.22;4151419;84;21766;-82
2021/10/13 13:33:26;;;;;;;9.18;6.10;;;;;;;8.33;88.74;99234.66;4151551;84;21005;-81
2021/10/13 13:39:27;;;;;;;17.12;8.08;;;;;;;8.15;88.50;99240.81;4152836;84;21579;-81
2021/10/13 13:45:28;;;;;;;10.25;6.90;;;;;;;8.21;89.18;99248.94;4150591;84;21567;-81
2021/10/13 13:51:29;;;;;;;13.15;8.43;;;;;;;8.40;89.32;99251.78;4153212;84;21115;-81
2021/10/13 13:57:31;;;;;;;13.93;7.53;;;;;;;8.57;89.18;99259.58;4162537;83;21090;-81
2021/10/13 14:03:32;;;;;;;12.33;7.80;;;;;;;8.60;88.83;99259.67;4153674;84;21597;-82
2021/10/13 14:09:34;;;;;;;12.85;6.72;;;;;;;8.60;89.08;99262.96;4160528;84;21123;-81
2021/10/13 14:15:36;;;;;;;14.35;8.00;;;;;;;8.50;88.53;99267.05;4158937;84;21086;-83
2021/10/13 14:21:37;;;;;;;14.68;7.85;;;;;;;8.34;88.56;99285.93;4162068;84;21015;-84
2021/10/13 14:27:39;;;;;;;11.83;7.97;;;;;;;8.20;89.13;99280.09;4166118;84;21092;-83
2021/10/13 14:33:40;;;;;;;9.35;5.78;;;;;;;8.07;89.13;99284.84;4179793;83;21098;-83
2021/10/13 14:39:41;;;;;;;9.93;4.75;;;;;;;7.97;89.40;99284.79;4177083;83;21103;-82
2021/10/13 14:45:43;;;;;;;10.45;6.37;;;;;;;7.93;89.55;99285.84;4171510;83;21080;-82
2021/10/13 14:51:44;;;;;;;11.00;7.62;;;;;;;7.81;89.37;99298.95;4179090;83;21924;-81
2021/10/13 14:57:46;;;;;;;16.32;10.43;;;;;;;7.79;89.80;99297.73;4170174;83;21027;-81
2021/10/13 15:03:47;;;;;;;26.85;13.18;;;;;;;7.76;89.97;99306.05;4145824;84;21115;-82
2021/10/13 15:09:51;;;;;;;26.90;16.00;;;;;;;7.73;89.75;99308.67;4154847;83;21095;-82
2021/10/13 15:15:53;;;;;;;24.75;15.48;;;;;;;7.70;89.94;99312.09;4147458;84;21054;-82
2021/10/13 15:21:54;;;;;;;24.90;15.85;;;;;;;7.72;90.10;99319.36;4147661;84;22273;-82
2021/10/13 15:27:55;;;;;;;29.40;16.42;;;;;;;7.67;90.16;99317.65;4145734;84;21039;-83
2021/10/13 15:33:57;;;;;;;31.07;17.05;;;;;;;7.53;90.18;99313.17;4148929;84;21024;-83
2021/10/13 15:39:59;;;;;;;25.57;15.43;;;;;;;7.40;90.00;99345.70;4031138;86;21706;-82
2021/10/13 15:46:00;;;;;;;28.87;18.67;;;;;;;7.31;90.92;99346.97;4033084;86;21498;-82
2021/10/13 15:52:02;;;;;;;25.50;15.50;;;;;;;7.22;91.29;99358.58;4117240;84;21699;-82
2021/10/13 15:58:03;;;;;;;25.48;14.45;;;;;;;7.32;91.65;99363.53;4125996;85;21020;-81
2021/10/13 16:04:05;;;;;;;23.57;14.60;;;;;;;7.40;91.48;99374.86;4152282;84;21074;-82
2021/10/13 16:10:11;;;;;;;25.68;15.55;;;;;;;7.38;91.82;99373.84;3976536;85;9999657;-82
2021/10/13 16:16:12;;;;;;;29.32;14.50;;;;;;;7.45;91.89;99390.97;4090675;85;21043;-82
2021/10/13 16:22:13;;;;;;;16.42;10.50;;;;;;;7.27;91.16;99397.23;4094698;85;21011;-82
2021/10/13 16:28:15;;;;;;;23.45;8.78;;;;;;;7.15;91.32;99401.91;4048677;86;21635;-82
2021/10/13 16:34:17;;;;;;;13.05;5.97;;;;;;;7.04;91.06;99408.95;4051035;86;21160;-82
2021/10/13 16:40:18;;;;;;;7.12;3.90;;;;;;;6.81;91.15;99418.71;4055989;86;21556;-81
2021/10/13 16:46:19;;;;;;;10.48;6.85;;;;;;;6.66;90.86;99417.45;4053380;86;21095;-82
2021/10/13 16:52:21;;;;;;;16.80;11.50;;;;;;;6.45;91.13;99427.63;4048480;86;21119;-81
2021/10/13 16:58:22;;;;;;;33.33;24.35;;;;;;;6.43;90.85;99432.61;4081063;85;21082;-81
2021/10/13 17:04:24;;;;;;;19.50;12.47;;;;;;;6.17;91.08;99434.81;4100440;85;21117;-83
2021/10/13 17:10:27;;;;;;;45.85;31.55;;;;;;;6.05;91.48;99436.11;4135917;84;21092;-81
2021/10/13 17:16:28;;;;;;;35.33;21.82;;;;;;;5.86;91.83;99439.31;4103154;85;22166;-82
2021/10/13 17:22:31;;;;;;;36.70;22.55;;;;;;;5.91;92.17;99443.75;4101090;85;21064;-81
2021/10/13 17:28:32;;;;;;;39.63;25.88;;;;;;;6.09;92.87;99440.53;4103550;84;21592;-84
2021/10/13 17:34:35;;;;;;;44.18;27.87;;;;;;;6.19;92.82;99448.84;4014294;87;21041;-82
2021/10/13 17:40:37;;;;;;;40.80;23.25;;;;;;;6.25;92.53;99450.22;4177934;83;21086;-82
2021/10/13 17:46:38;;;;;;;42.05;25.10;;;;;;;6.28;93.12;99465.30;4184216;83;21048;-81
2021/10/13 17:52:40;;;;;;;45.50;27.37;;;;;;;6.39;93.25;99476.55;4101557;85;21028;-82
2021/10/13 17:58:41;;;;;;;48.95;27.60;;;;;;;6.43;93.38;99476.67;4103626;85;21047;-81
2021/10/13 18:04:42;;;;;;;46.73;27.37;;;;;;;6.46;93.24;99487.68;4203848;83;21082;-84
2021/10/13 18:10:43;;;;;;;52.23;31.20;;;;;;;6.42;93.05;99488.14;4114916;85;21543;-81
2021/10/13 18:16:47;;;;;;;51.02;30.27;;;;;;;6.37;93.25;99493.78;4209382;83;21038;-82
2021/10/13 18:22:48;;;;;;;57.48;31.20;;;;;;;6.37;93.48;99497.27;4104985;85;21539;-82
2021/10/13 18:28:49;;;;;;;54.45;32.83;;;;;;;6.42;93.56;99505.81;4202844;83;21427;-81
2021/10/13 18:34:51;;;;;;;55.15;33.18;;;;;;;6.35;93.27;99505.55;4204934;83;20986;-81
2021/10/13 18:40:52;;;;;;;52.45;31.42;;;;;;;6.42;93.48;99524.05;4200194;83;21557;-81
2021/10/13 18:46:53;;;;;;;51.85;31.55;;;;;;;6.48;93.79;99517.27;4205034;83;21082;-82
2021/10/13 18:52:54;;;;;;;53.52;30.65;;;;;;;6.35;93.31;99532.19;4205378;83;20967;-82
2021/10/13 18:58:56;;;;;;;56.50;32.53;;;;;;;6.37;93.82;99536.70;4144619;84;21948;-82
2021/10/13 19:04:57;;;;;;;53.75;31.70;;;;;;;6.40;93.68;99544.19;4138244;84;21063;-81
2021/10/13 19:10:59;;;;;;;59.42;31.93;;;;;;;6.27;93.57;99546.64;4148697;84;21075;-81
2021/10/13 19:17:00;;;;;;;63.42;31.85;;;;;;;6.20;93.35;99547.73;4151154;84;21107;-82
2021/10/13 19:23:02;;;;;;;64.00;32.67;;;;;;;6.06;93.47;99552.64;4148380;84;21603;-81
2021/10/13 19:29:04;;;;;;;49.23;26.37;;;;;;;6.11;93.85;99552.45;4141133;84;21107;-83
2021/10/13 19:35:06;;;;;;;47.38;27.52;;;;;;;6.11;93.63;99556.53;4142952;84;21536;-82
2021/10/13 19:41:07;;;;;;;45.73;24.85;;;;;;;6.16;93.78;99559.61;4151845;84;21516;-81
2021/10/13 19:47:09;;;;;;;42.95;23.98;;;;;;;6.18;93.71;99566.87;4158197;84;21493;-81
2021/10/13 19:53:10;;;;;;;41.58;22.60;;;;;;;6.18;94.00;99563.60;4152103;84;21063;-82
2021/10/13 19:59:11;;;;;;;45.45;25.30;;;;;;;6.17;93.87;99567.43;4092295;85;21574;-82
2021/10/13 20:05:13;;;;;;;46.55;26.30;;;;;;;6.17;94.00;99574.22;4048748;86;21544;-82
2021/10/13 20:11:14;;;;;;;52.00;26.68;;;;;;;6.24;94.00;99580.50;4090413;85;21048;-84
2021/10/13 20:17:16;;;;;;;52.70;28.67;;;;;;;6.28;94.02;99580.86;4148928;84;22082;-82
2021/10/13 20:23:18;;;;;;;52.27;26.82;;;;;;;6.30;94.14;99581.33;4153040;84;21085;-82
2021/10/13 20:29:19;;;;;;;47.43;27.55;;;;;;;6.24;93.89;99582.66;4179567;83;21475;-81
2021/10/13 20:35:21;;;;;;;45.63;27.17;;;;;;;6.18;94.17;99589.42;4180065;83;21019;-82
2021/10/13 20:41:22;;;;;;;49.93;27.98;;;;;;;6.19;94.16;99599.72;4175479;83;21051;-82
2021/10/13 20:47:24;;;;;;;50.08;26.17;;;;;;;6.19;94.24;99600.52;4174504;83;21133;-82
2021/10/13 20:53:25;;;;;;;50.58;25.88;;;;;;;6.20;94.37;99591.23;4174587;83;21888;-82
2021/10/13 20:59:26;;;;;;;48.68;26.60;;;;;;;6.17;94.27;99589.17;4179343;83;21082;-82
2021/10/13 21:05:27;;;;;;;52.53;27.40;;;;;;;6.18;94.46;99588.63;4107001;85;21043;-82
2021/10/13 21:11:29;;;;;;;51.08;27.65;;;;;;;6.19;94.56;99590.20;4207479;83;21050;-81
2021/10/13 21:17:31;;;;;;;46.35;26.68;;;;;;;6.22;94.52;99590.90;4203358;83;21054;-81
2021/10/13 21:23:33;;;;;;;48.70;27.27;;;;;;;6.28;94.61;99591.73;4204126;83;21005;-81
2021/10/13 21:29:34;;;;;;;50.15;28.27;;;;;;;6.20;94.59;99592.59;4207198;83;21086;-82
2021/10/13 21:35:37;;;;;;;47.15;26.60;;;;;;;6.15;94.58;99595.50;4145223;84;21051;-82
2021/10/13 21:41:38;;;;;;;52.38;28.47;;;;;;;6.15;94.82;99600.16;4146096;84;21065;-81
2021/10/13 21:47:41;;;;;;;48.13;27.95;;;;;;;6.13;94.96;99598.33;4150725;84;21536;-82
2021/10/13 21:53:42;;;;;;;50.48;28.05;;;;;;;6.19;95.05;99592.37;4137311;84;21079;-82
2021/10/13 21:59:43;;;;;;;53.10;27.67;;;;;;;6.21;95.06;99598.28;4150246;84;21543;-82
2021/10/13 22:05:44;;;;;;;56.15;31.35;;;;;;;6.24;95.12;99594.09;4086642;84;21655;-82
2021/10/13 22:11:46;;;;;;;58.33;31.30;;;;;;;6.25;95.10;99588.87;4138973;84;21035;-82
2021/10/13 22:17:47;;;;;;;61.42;32.05;;;;;;;6.29;95.15;99587.91;4154138;84;21059;-81
2021/10/13 22:23:48;;;;;;;60.80;32.80;;;;;;;6.32;95.09;99585.88;4154551;84;22175;-82
2021/10/13 22:29:50;;;;;;;60.85;32.78;;;;;;;6.32;95.30;99592.67;4084550;85;21114;-84
2021/10/13 22:35:51;;;;;;;57.43;32.48;;;;;;;6.37;95.27;99593.03;4050453;86;21103;-82
2021/10/13 22:41:52;;;;;;;62.58;33.58;;;;;;;6.30;95.22;99597.64;4045998;86;21126;-82
2021/10/13 22:47:53;;;;;;;58.83;31.95;;;;;;;6.34;95.43;99599.14;4150081;84;21004;-81
2021/10/13 22:54:01;;;;;;;60.35;31.97;;;;;;;6.35;95.47;99604.24;4145334;84;21026;-81
2021/10/13 22:59:57;;;;;;;56.88;32.90;;;;;;;6.32;95.55;99604.91;4153591;84;21094;-81
2021/10/13 23:05:59;;;;;;;60.45;33.95;;;;;;;6.32;95.68;99613.06;4147438;84;21602;-81
2021/10/13 23:12:01;;;;;;;53.38;30.70;;;;;;;6.27;95.75;99610.54;4153614;84;21059;-82
2021/10/13 23:18:04;;;;;;;52.17;30.32;;;;;;;6.29;95.70;99615.09;4150635;84;21063;-81
2021/10/13 23:24:08;;;;;;;51.28;31.62;;;;;;;6.29;95.58;99616.45;4150085;84;21096;-81
2021/10/13 23:30:10;;;;;;;53.92;30.77;;;;;;;6.34;95.78;99613.51;4144732;84;22183;-82
2021/10/13 23:36:11;;;;;;;60.10;31.68;;;;;;;6.38;95.66;99616.37;4147776;84;21109;-82
2021/10/13 23:42:12;;;;;;;56.85;31.35;;;;;;;6.38;95.65;99605.49;4157526;84;21036;-82
2021/10/13 23:48:14;;;;;;;57.25;31.75;;;;;;;6.35;95.87;99616.48;4149775;84;21071;-82
2021/10/13 23:54:15;;;;;;;57.78;33.58;;;;;;;6.35;95.70;99616.48;4153887;84;21055;-81
